sensor_id;sensor_type;location;lat;lon;timestamp;P1;durP1;ratioP1;P2;durP2;ratioP2
29854;SDS011;16733;48.738;9.106;2022-09-12T00:00:43;6.80;;;4.10;;
29854;SDS011;16733;48.738;9.106;2022-09-12T00:03:08;8.10;;;4.13;;
29854;SDS011;16733;48.738;9.106;2022-09-12T00:05:39;6.72;;;4.88;;
29854;SDS011;16733;48.738;9.106;2022-09-12T00:08:08;9.40;;;4.53;;
29854;SDS011;16733;48.738;9.106;2022-09-12T00:10:38;8.50;;;4.97;;
29854;SDS011;16733;48.738;9.106;2022-09-12T00:13:05;9.18;;;4.72;;
29854;SDS011;16733;48.738;9.106;2022-09-12T00:15:32;13.13;;;5.00;;
29854;SDS011;16733;48.738;9.106;2022-09-12T00:18:02;9.80;;;4.55;;
29854;SDS011;16733;48.738;9.106;2022-09-12T00:20:28;7.97;;;4.38;;
29854;SDS011;16733;48.738;9.106;2022-09-12T00:22:54;6.50;;;4.30;;
29854;SDS011;16733;48.738;9.106;2022-09-12T00:25:19;9.73;;;4.47;;
29854;SDS011;16733;48.738;9.106;2022-09-12T00:27:45;8.48;;;4.65;;
29854;SDS011;16733;48.738;9.106;2022-09-12T00:30:10;10.10;;;4.55;;
29854;SDS011;16733;48.738;9.106;2022-09-12T00:32:36;8.50;;;4.38;;
29854;SDS011;16733;48.738;9.106;2022-09-12T00:35:02;9.77;;;4.60;;
29854;SDS011;16733;48.738;9.106;2022-09-12T00:37:28;6.60;;;4.45;;
29854;SDS011;16733;48.738;9.106;2022-09-12T00:39:53;6.55;;;4.30;;
29854;SDS011;16733;48.738;9.106;2022-09-12T00:42:19;6.63;;;4.50;;
29854;SDS011;16733;48.738;9.106;2022-09-12T00:44:46;8.75;;;4.10;;
29854;SDS011;16733;48.738;9.106;2022-09-12T00:47:50;6.13;;;4.20;;
29854;SDS011;16733;48.738;9.106;2022-09-12T00:50:16;7.45;;;4.80;;
29854;SDS011;16733;48.738;9.106;2022-09-12T00:52:43;6.55;;;4.47;;
29854;SDS011;16733;48.738;9.106;2022-09-12T00:55:18;8.65;;;4.43;;
29854;SDS011;16733;48.738;9.106;2022-09-12T00:58:13;6.10;;;4.10;;
29854;SDS011;16733;48.738;9.106;2022-09-12T01:00:44;6.60;;;4.00;;
29854;SDS011;16733;48.738;9.106;2022-09-12T01:03:11;8.48;;;4.65;;
29854;SDS011;16733;48.738;9.106;2022-09-12T01:05:40;7.18;;;4.80;;
29854;SDS011;16733;48.738;9.106;2022-09-12T01:08:10;5.80;;;3.78;;
29854;SDS011;16733;48.738;9.106;2022-09-12T01:10:37;6.80;;;4.15;;
29854;SDS011;16733;48.738;9.106;2022-09-12T01:13:06;8.43;;;4.43;;
29854;SDS011;16733;48.738;9.106;2022-09-12T01:15:33;6.30;;;4.22;;
29854;SDS011;16733;48.738;9.106;2022-09-12T01:18:20;7.15;;;4.82;;
29854;SDS011;16733;48.738;9.106;2022-09-12T01:40:56;5.80;;;4.03;;
29854;SDS011;16733;48.738;9.106;2022-09-12T01:46:18;5.22;;;3.80;;
29854;SDS011;16733;48.738;9.106;2022-09-12T01:48:54;5.95;;;3.67;;
29854;SDS011;16733;48.738;9.106;2022-09-12T01:55:06;9.27;;;3.95;;
29854;SDS011;16733;48.738;9.106;2022-09-12T02:00:29;5.68;;;4.13;;
29854;SDS011;16733;48.738;9.106;2022-09-12T02:02:59;7.15;;;3.92;;
29854;SDS011;16733;48.738;9.106;2022-09-12T02:05:33;5.45;;;4.30;;
29854;SDS011;16733;48.738;9.106;2022-09-12T02:08:05;5.88;;;3.75;;
29854;SDS011;16733;48.738;9.106;2022-09-12T02:10:52;5.55;;;3.95;;
29854;SDS011;16733;48.738;9.106;2022-09-12T02:18:48;7.00;;;4.65;;
29854;SDS011;16733;48.738;9.106;2022-09-12T02:21:17;7.57;;;4.43;;
29854;SDS011;16733;48.738;9.106;2022-09-12T02:27:13;6.43;;;4.15;;
29854;SDS011;16733;48.738;9.106;2022-09-12T02:29:42;6.38;;;4.05;;
29854;SDS011;16733;48.738;9.106;2022-09-12T02:35:23;10.02;;;4.72;;
29854;SDS011;16733;48.738;9.106;2022-09-12T02:40:33;5.88;;;3.88;;
29854;SDS011;16733;48.738;9.106;2022-09-12T02:43:00;7.10;;;4.35;;
29854;SDS011;16733;48.738;9.106;2022-09-12T02:45:27;10.25;;;4.60;;
29854;SDS011;16733;48.738;9.106;2022-09-12T02:50:22;5.88;;;3.83;;
29854;SDS011;16733;48.738;9.106;2022-09-12T02:52:48;5.05;;;3.80;;
29854;SDS011;16733;48.738;9.106;2022-09-12T02:55:17;5.30;;;3.83;;
29854;SDS011;16733;48.738;9.106;2022-09-12T02:57:43;6.05;;;3.53;;
29854;SDS011;16733;48.738;9.106;2022-09-12T03:00:09;7.20;;;4.50;;
29854;SDS011;16733;48.738;9.106;2022-09-12T03:26:49;7.53;;;4.88;;
29854;SDS011;16733;48.738;9.106;2022-09-12T03:29:22;8.73;;;4.78;;
29854;SDS011;16733;48.738;9.106;2022-09-12T03:31:53;8.48;;;4.45;;
29854;SDS011;16733;48.738;9.106;2022-09-12T03:35:16;7.15;;;4.50;;
29854;SDS011;16733;48.738;9.106;2022-09-12T03:37:43;7.68;;;4.80;;
29854;SDS011;16733;48.738;9.106;2022-09-12T03:40:10;8.27;;;4.68;;
29854;SDS011;16733;48.738;9.106;2022-09-12T03:45:58;7.22;;;4.88;;
29854;SDS011;16733;48.738;9.106;2022-09-12T03:48:23;10.63;;;4.30;;
29854;SDS011;16733;48.738;9.106;2022-09-12T03:54:11;5.82;;;4.13;;
29854;SDS011;16733;48.738;9.106;2022-09-12T03:56:36;8.93;;;4.18;;
29854;SDS011;16733;48.738;9.106;2022-09-12T04:02:27;5.80;;;4.05;;
29854;SDS011;16733;48.738;9.106;2022-09-12T04:04:53;6.43;;;4.25;;
29854;SDS011;16733;48.738;9.106;2022-09-12T04:07:18;15.55;;;7.72;;
29854;SDS011;16733;48.738;9.106;2022-09-12T04:13:20;7.72;;;4.93;;
29854;SDS011;16733;48.738;9.106;2022-09-12T04:19:08;8.93;;;4.75;;
29854;SDS011;16733;48.738;9.106;2022-09-12T04:21:35;6.97;;;4.43;;
29854;SDS011;16733;48.738;9.106;2022-09-12T04:27:23;7.95;;;4.75;;
29854;SDS011;16733;48.738;9.106;2022-09-12T04:29:49;10.35;;;4.72;;
29854;SDS011;16733;48.738;9.106;2022-09-12T04:32:14;8.00;;;4.80;;
29854;SDS011;16733;48.738;9.106;2022-09-12T04:34:40;11.55;;;5.38;;
29854;SDS011;16733;48.738;9.106;2022-09-12T04:37:05;5.40;;;4.05;;
29854;SDS011;16733;48.738;9.106;2022-09-12T04:39:31;7.90;;;5.07;;
29854;SDS011;16733;48.738;9.106;2022-09-12T04:41:57;7.18;;;4.60;;
29854;SDS011;16733;48.738;9.106;2022-09-12T04:44:22;11.68;;;4.93;;
29854;SDS011;16733;48.738;9.106;2022-09-12T04:46:48;7.90;;;4.38;;
29854;SDS011;16733;48.738;9.106;2022-09-12T04:49:13;9.27;;;4.68;;
29854;SDS011;16733;48.738;9.106;2022-09-12T04:51:43;5.40;;;4.05;;
29854;SDS011;16733;48.738;9.106;2022-09-12T04:54:16;6.20;;;4.68;;
29854;SDS011;16733;48.738;9.106;2022-09-12T04:56:44;6.28;;;3.67;;
29854;SDS011;16733;48.738;9.106;2022-09-12T04:59:12;6.88;;;4.07;;
29854;SDS011;16733;48.738;9.106;2022-09-12T05:05:01;7.10;;;3.92;;
29854;SDS011;16733;48.738;9.106;2022-09-12T05:07:27;7.53;;;4.43;;
29854;SDS011;16733;48.738;9.106;2022-09-12T05:09:53;6.70;;;4.30;;
29854;SDS011;16733;48.738;9.106;2022-09-12T05:12:19;8.15;;;4.35;;
29854;SDS011;16733;48.738;9.106;2022-09-12T05:14:44;6.93;;;4.35;;
29854;SDS011;16733;48.738;9.106;2022-09-12T05:17:10;7.32;;;4.80;;
29854;SDS011;16733;48.738;9.106;2022-09-12T05:22:58;7.82;;;4.10;;
29854;SDS011;16733;48.738;9.106;2022-09-12T05:25:23;7.30;;;4.22;;
29854;SDS011;16733;48.738;9.106;2022-09-12T05:31:30;9.02;;;5.15;;
29854;SDS011;16733;48.738;9.106;2022-09-12T05:33:55;7.68;;;4.70;;
29854;SDS011;16733;48.738;9.106;2022-09-12T05:36:25;7.30;;;4.68;;
29854;SDS011;16733;48.738;9.106;2022-09-12T05:38:53;10.40;;;5.63;;
29854;SDS011;16733;48.738;9.106;2022-09-12T05:41:19;7.88;;;4.97;;
29854;SDS011;16733;48.738;9.106;2022-09-12T05:43:51;12.45;;;4.90;;
29854;SDS011;16733;48.738;9.106;2022-09-12T05:46:18;8.85;;;5.15;;
29854;SDS011;16733;48.738;9.106;2022-09-12T05:52:07;8.25;;;4.85;;
29854;SDS011;16733;48.738;9.106;2022-09-12T05:54:33;9.98;;;5.15;;
29854;SDS011;16733;48.738;9.106;2022-09-12T06:00:20;17.48;;;6.93;;
29854;SDS011;16733;48.738;9.106;2022-09-12T06:02:50;26.45;;;9.02;;
29854;SDS011;16733;48.738;9.106;2022-09-12T06:08:39;14.40;;;6.72;;
29854;SDS011;16733;48.738;9.106;2022-09-12T06:11:07;9.75;;;5.82;;
29854;SDS011;16733;48.738;9.106;2022-09-12T06:13:34;12.07;;;5.95;;
29854;SDS011;16733;48.738;9.106;2022-09-12T06:16:16;12.63;;;5.47;;
29854;SDS011;16733;48.738;9.106;2022-09-12T06:18:46;9.60;;;5.43;;
29854;SDS011;16733;48.738;9.106;2022-09-12T06:21:13;7.40;;;4.78;;
29854;SDS011;16733;48.738;9.106;2022-09-12T06:23:39;9.63;;;5.97;;
29854;SDS011;16733;48.738;9.106;2022-09-12T06:29:28;10.45;;;5.35;;
29854;SDS011;16733;48.738;9.106;2022-09-12T06:31:53;9.60;;;5.03;;
29854;SDS011;16733;48.738;9.106;2022-09-12T06:34:19;9.13;;;4.78;;
29854;SDS011;16733;48.738;9.106;2022-09-12T06:40:06;9.07;;;5.65;;
29854;SDS011;16733;48.738;9.106;2022-09-12T06:42:34;9.25;;;5.05;;
29854;SDS011;16733;48.738;9.106;2022-09-12T06:48:21;9.90;;;5.40;;
29854;SDS011;16733;48.738;9.106;2022-09-12T06:50:57;7.32;;;4.85;;
29854;SDS011;16733;48.738;9.106;2022-09-12T06:53:24;11.57;;;4.80;;
29854;SDS011;16733;48.738;9.106;2022-09-12T06:56:04;9.02;;;4.75;;
29854;SDS011;16733;48.738;9.106;2022-09-12T06:58:33;10.95;;;4.80;;
29854;SDS011;16733;48.738;9.106;2022-09-12T07:01:00;6.35;;;4.20;;
29854;SDS011;16733;48.738;9.106;2022-09-12T07:07:07;6.68;;;4.38;;
29854;SDS011;16733;48.738;9.106;2022-09-12T07:09:33;5.93;;;3.97;;
29854;SDS011;16733;48.738;9.106;2022-09-12T07:15:20;5.07;;;3.95;;
29854;SDS011;16733;48.738;9.106;2022-09-12T07:17:46;6.88;;;3.22;;
29854;SDS011;16733;48.738;9.106;2022-09-12T07:20:11;4.32;;;2.83;;
29854;SDS011;16733;48.738;9.106;2022-09-12T07:22:39;7.25;;;3.83;;
29854;SDS011;16733;48.738;9.106;2022-09-12T07:25:05;4.63;;;3.22;;
29854;SDS011;16733;48.738;9.106;2022-09-12T07:27:31;4.90;;;3.00;;
29854;SDS011;16733;48.738;9.106;2022-09-12T07:29:57;4.18;;;3.20;;
29854;SDS011;16733;48.738;9.106;2022-09-12T07:32:23;5.93;;;3.40;;
29854;SDS011;16733;48.738;9.106;2022-09-12T07:34:48;5.30;;;2.80;;
29854;SDS011;16733;48.738;9.106;2022-09-12T07:37:51;5.03;;;2.70;;
29854;SDS011;16733;48.738;9.106;2022-09-12T07:40:17;6.15;;;3.08;;
29854;SDS011;16733;48.738;9.106;2022-09-12T07:42:42;4.05;;;2.80;;
29854;SDS011;16733;48.738;9.106;2022-09-12T07:45:08;3.05;;;2.53;;
29854;SDS011;16733;48.738;9.106;2022-09-12T07:47:34;4.47;;;2.83;;
29854;SDS011;16733;48.738;9.106;2022-09-12T07:50:00;4.80;;;2.63;;
29854;SDS011;16733;48.738;9.106;2022-09-12T07:52:26;4.00;;;2.35;;
29854;SDS011;16733;48.738;9.106;2022-09-12T07:54:51;2.88;;;2.28;;
29854;SDS011;16733;48.738;9.106;2022-09-12T07:57:17;4.03;;;2.60;;
29854;SDS011;16733;48.738;9.106;2022-09-12T07:59:43;2.92;;;2.40;;
29854;SDS011;16733;48.738;9.106;2022-09-12T08:02:12;4.75;;;2.30;;
29854;SDS011;16733;48.738;9.106;2022-09-12T08:04:40;4.70;;;1.95;;
29854;SDS011;16733;48.738;9.106;2022-09-12T08:07:06;3.15;;;2.00;;
29854;SDS011;16733;48.738;9.106;2022-09-12T08:09:32;2.17;;;1.85;;
29854;SDS011;16733;48.738;9.106;2022-09-12T08:11:58;2.90;;;1.98;;
29854;SDS011;16733;48.738;9.106;2022-09-12T08:17:46;4.90;;;2.30;;
29854;SDS011;16733;48.738;9.106;2022-09-12T08:20:11;2.45;;;2.00;;
29854;SDS011;16733;48.738;9.106;2022-09-12T08:22:37;2.78;;;2.05;;
29854;SDS011;16733;48.738;9.106;2022-09-12T08:25:04;2.75;;;2.00;;
29854;SDS011;16733;48.738;9.106;2022-09-12T08:30:53;2.50;;;1.90;;
29854;SDS011;16733;48.738;9.106;2022-09-12T08:36:40;3.85;;;1.70;;
29854;SDS011;16733;48.738;9.106;2022-09-12T08:39:06;1.55;;;1.40;;
29854;SDS011;16733;48.738;9.106;2022-09-12T08:41:34;2.55;;;1.92;;
29854;SDS011;16733;48.738;9.106;2022-09-12T08:52:30;3.55;;;1.88;;
29854;SDS011;16733;48.738;9.106;2022-09-12T08:55:24;4.80;;;1.85;;
29854;SDS011;16733;48.738;9.106;2022-09-12T08:58:00;3.58;;;2.30;;
29854;SDS011;16733;48.738;9.106;2022-09-12T09:17:31;3.47;;;2.08;;
29854;SDS011;16733;48.738;9.106;2022-09-12T09:20:39;6.10;;;1.92;;
29854;SDS011;16733;48.738;9.106;2022-09-12T09:23:23;4.15;;;2.00;;
29854;SDS011;16733;48.738;9.106;2022-09-12T09:31:17;3.42;;;1.95;;
29854;SDS011;16733;48.738;9.106;2022-09-12T09:43:23;2.72;;;1.50;;
29854;SDS011;16733;48.738;9.106;2022-09-12T09:45:53;1.70;;;1.60;;
29854;SDS011;16733;48.738;9.106;2022-09-12T09:48:24;2.15;;;1.40;;
29854;SDS011;16733;48.738;9.106;2022-09-12T09:50:53;1.60;;;1.50;;
29854;SDS011;16733;48.738;9.106;2022-09-12T09:56:04;3.17;;;1.52;;
29854;SDS011;16733;48.738;9.106;2022-09-12T10:02:22;2.20;;;1.20;;
29854;SDS011;16733;48.738;9.106;2022-09-12T10:08:09;1.35;;;1.20;;
29854;SDS011;16733;48.738;9.106;2022-09-12T10:13:51;2.65;;;1.50;;
29854;SDS011;16733;48.738;9.106;2022-09-12T10:18:52;1.38;;;1.10;;
29854;SDS011;16733;48.738;9.106;2022-09-12T10:21:29;1.10;;;0.85;;
29854;SDS011;16733;48.738;9.106;2022-09-12T10:26:56;1.45;;;1.08;;
29854;SDS011;16733;48.738;9.106;2022-09-12T10:29:31;1.58;;;0.98;;
29854;SDS011;16733;48.738;9.106;2022-09-12T10:35:27;1.38;;;1.05;;
29854;SDS011;16733;48.738;9.106;2022-09-12T10:38:02;1.45;;;1.00;;
29854;SDS011;16733;48.738;9.106;2022-09-12T10:43:52;3.17;;;1.15;;
29854;SDS011;16733;48.738;9.106;2022-09-12T10:53:21;2.63;;;0.80;;
29854;SDS011;16733;48.738;9.106;2022-09-12T11:08:30;2.13;;;1.10;;
29854;SDS011;16733;48.738;9.106;2022-09-12T11:19:45;1.83;;;0.90;;
29854;SDS011;16733;48.738;9.106;2022-09-12T11:22:32;1.05;;;0.93;;
29854;SDS011;16733;48.738;9.106;2022-09-12T11:33:47;1.30;;;0.60;;
29854;SDS011;16733;48.738;9.106;2022-09-12T11:42:31;0.85;;;0.50;;
29854;SDS011;16733;48.738;9.106;2022-09-12T11:48:08;2.75;;;0.73;;
29854;SDS011;16733;48.738;9.106;2022-09-12T11:50:39;0.98;;;0.80;;
29854;SDS011;16733;48.738;9.106;2022-09-12T11:56:27;0.83;;;0.70;;
29854;SDS011;16733;48.738;9.106;2022-09-12T11:59:02;0.73;;;0.65;;
29854;SDS011;16733;48.738;9.106;2022-09-12T12:07:41;2.95;;;0.57;;
29854;SDS011;16733;48.738;9.106;2022-09-12T12:10:55;0.85;;;0.60;;
29854;SDS011;16733;48.738;9.106;2022-09-12T12:16:13;1.05;;;0.70;;
29854;SDS011;16733;48.738;9.106;2022-09-12T12:18:43;1.40;;;0.77;;
29854;SDS011;16733;48.738;9.106;2022-09-12T12:29:39;0.60;;;0.57;;
29854;SDS011;16733;48.738;9.106;2022-09-12T12:34:33;1.67;;;0.57;;
29854;SDS011;16733;48.738;9.106;2022-09-12T12:40:08;1.08;;;0.70;;
29854;SDS011;16733;48.738;9.106;2022-09-12T12:48:34;0.77;;;0.60;;
29854;SDS011;16733;48.738;9.106;2022-09-12T12:54:25;0.45;;;0.45;;
29854;SDS011;16733;48.738;9.106;2022-09-12T12:57:17;0.80;;;0.60;;
29854;SDS011;16733;48.738;9.106;2022-09-12T13:00:04;3.22;;;0.80;;
29854;SDS011;16733;48.738;9.106;2022-09-12T13:05:24;0.85;;;0.60;;
29854;SDS011;16733;48.738;9.106;2022-09-12T13:07:52;0.65;;;0.40;;
29854;SDS011;16733;48.738;9.106;2022-09-12T13:10:24;1.27;;;0.50;;
29854;SDS011;16733;48.738;9.106;2022-09-12T13:12:53;0.60;;;0.60;;
29854;SDS011;16733;48.738;9.106;2022-09-12T13:18:01;2.30;;;0.40;;
29854;SDS011;16733;48.738;9.106;2022-09-12T13:20:30;0.75;;;0.52;;
29854;SDS011;16733;48.738;9.106;2022-09-12T13:23:00;0.63;;;0.40;;
29854;SDS011;16733;48.738;9.106;2022-09-12T13:25:26;0.45;;;0.43;;
29854;SDS011;16733;48.738;9.106;2022-09-12T13:30:35;0.45;;;0.40;;
29854;SDS011;16733;48.738;9.106;2022-09-12T13:33:24;0.30;;;0.30;;
29854;SDS011;16733;48.738;9.106;2022-09-12T13:36:14;1.27;;;0.50;;
29854;SDS011;16733;48.738;9.106;2022-09-12T13:44:24;0.73;;;0.40;;
29854;SDS011;16733;48.738;9.106;2022-09-12T13:46:52;1.20;;;0.45;;
29854;SDS011;16733;48.738;9.106;2022-09-12T13:49:32;1.33;;;0.40;;
29854;SDS011;16733;48.738;9.106;2022-09-12T13:55:25;0.57;;;0.40;;
29854;SDS011;16733;48.738;9.106;2022-09-12T13:57:56;0.52;;;0.47;;
29854;SDS011;16733;48.738;9.106;2022-09-12T14:00:23;0.30;;;0.30;;
29854;SDS011;16733;48.738;9.106;2022-09-12T14:02:49;1.02;;;0.40;;
29854;SDS011;16733;48.738;9.106;2022-09-12T14:05:35;0.60;;;0.40;;
29854;SDS011;16733;48.738;9.106;2022-09-12T14:08:04;0.57;;;0.40;;
29854;SDS011;16733;48.738;9.106;2022-09-12T14:10:36;0.50;;;0.40;;
29854;SDS011;16733;48.738;9.106;2022-09-12T14:13:08;0.75;;;0.40;;
29854;SDS011;16733;48.738;9.106;2022-09-12T14:15:49;1.40;;;0.40;;
29854;SDS011;16733;48.738;9.106;2022-09-12T14:18:24;0.57;;;0.40;;
29854;SDS011;16733;48.738;9.106;2022-09-12T14:20:52;0.30;;;0.20;;
29854;SDS011;16733;48.738;9.106;2022-09-12T14:26:42;0.85;;;0.40;;
29854;SDS011;16733;48.738;9.106;2022-09-12T14:29:11;0.30;;;0.30;;
29854;SDS011;16733;48.738;9.106;2022-09-12T14:35:24;0.65;;;0.45;;
29854;SDS011;16733;48.738;9.106;2022-09-12T14:41:11;0.85;;;0.57;;
29854;SDS011;16733;48.738;9.106;2022-09-12T14:43:43;0.40;;;0.40;;
29854;SDS011;16733;48.738;9.106;2022-09-12T14:49:33;3.97;;;0.40;;
29854;SDS011;16733;48.738;9.106;2022-09-12T14:52:01;1.17;;;0.47;;
29854;SDS011;16733;48.738;9.106;2022-09-12T14:57:00;0.80;;;0.40;;
29854;SDS011;16733;48.738;9.106;2022-09-12T15:08:17;0.75;;;0.60;;
29854;SDS011;16733;48.738;9.106;2022-09-12T15:10:43;1.48;;;0.47;;
29854;SDS011;16733;48.738;9.106;2022-09-12T15:13:11;0.50;;;0.40;;
29854;SDS011;16733;48.738;9.106;2022-09-12T15:15:59;1.05;;;0.60;;
29854;SDS011;16733;48.738;9.106;2022-09-12T15:18:26;1.15;;;0.57;;
29854;SDS011;16733;48.738;9.106;2022-09-12T15:21:02;0.40;;;0.40;;
29854;SDS011;16733;48.738;9.106;2022-09-12T15:26:33;1.55;;;0.50;;
29854;SDS011;16733;48.738;9.106;2022-09-12T15:28:59;1.13;;;0.50;;
29854;SDS011;16733;48.738;9.106;2022-09-12T15:31:28;1.33;;;0.60;;
29854;SDS011;16733;48.738;9.106;2022-09-12T15:33:56;0.60;;;0.50;;
29854;SDS011;16733;48.738;9.106;2022-09-12T15:36:23;0.50;;;0.50;;
29854;SDS011;16733;48.738;9.106;2022-09-12T15:38:51;3.05;;;0.60;;
29854;SDS011;16733;48.738;9.106;2022-09-12T15:41:17;0.50;;;0.50;;
29854;SDS011;16733;48.738;9.106;2022-09-12T15:43:48;0.70;;;0.50;;
29854;SDS011;16733;48.738;9.106;2022-09-12T15:46:15;0.77;;;0.60;;
29854;SDS011;16733;48.738;9.106;2022-09-12T15:52:04;2.88;;;0.70;;
29854;SDS011;16733;48.738;9.106;2022-09-12T15:54:30;2.85;;;0.63;;
29854;SDS011;16733;48.738;9.106;2022-09-12T15:56:56;2.10;;;0.80;;
29854;SDS011;16733;48.738;9.106;2022-09-12T15:59:21;1.80;;;0.60;;
29854;SDS011;16733;48.738;9.106;2022-09-12T16:01:47;1.15;;;0.65;;
29854;SDS011;16733;48.738;9.106;2022-09-12T16:07:35;1.15;;;0.73;;
29854;SDS011;16733;48.738;9.106;2022-09-12T16:10:00;0.93;;;0.63;;
29854;SDS011;16733;48.738;9.106;2022-09-12T16:12:26;0.85;;;0.73;;
29854;SDS011;16733;48.738;9.106;2022-09-12T16:14:52;1.00;;;0.52;;
29854;SDS011;16733;48.738;9.106;2022-09-12T16:17:17;1.65;;;0.73;;
29854;SDS011;16733;48.738;9.106;2022-09-12T16:19:43;1.20;;;0.68;;
29854;SDS011;16733;48.738;9.106;2022-09-12T16:25:30;1.92;;;0.90;;
29854;SDS011;16733;48.738;9.106;2022-09-12T16:27:56;1.83;;;0.60;;
29854;SDS011;16733;48.738;9.106;2022-09-12T16:30:22;0.65;;;0.60;;
29854;SDS011;16733;48.738;9.106;2022-09-12T16:32:47;0.52;;;0.50;;
29854;SDS011;16733;48.738;9.106;2022-09-12T16:35:15;2.63;;;0.70;;
29854;SDS011;16733;48.738;9.106;2022-09-12T16:37:41;0.98;;;0.80;;
29854;SDS011;16733;48.738;9.106;2022-09-12T16:40:06;3.10;;;0.70;;
29854;SDS011;16733;48.738;9.106;2022-09-12T16:42:33;1.52;;;0.60;;
29854;SDS011;16733;48.738;9.106;2022-09-12T16:48:21;1.98;;;0.88;;
29854;SDS011;16733;48.738;9.106;2022-09-12T16:50:54;0.60;;;0.55;;
29854;SDS011;16733;48.738;9.106;2022-09-12T16:53:20;0.70;;;0.60;;
29854;SDS011;16733;48.738;9.106;2022-09-12T16:59:08;0.85;;;0.60;;
29854;SDS011;16733;48.738;9.106;2022-09-12T17:04:58;0.75;;;0.55;;
29854;SDS011;16733;48.738;9.106;2022-09-12T17:07:26;1.02;;;0.68;;
29854;SDS011;16733;48.738;9.106;2022-09-12T17:13:14;0.65;;;0.50;;
29854;SDS011;16733;48.738;9.106;2022-09-12T17:15:39;0.90;;;0.68;;
29854;SDS011;16733;48.738;9.106;2022-09-12T17:18:05;0.88;;;0.57;;
29854;SDS011;16733;48.738;9.106;2022-09-12T17:23:53;1.00;;;0.52;;
29854;SDS011;16733;48.738;9.106;2022-09-12T17:26:18;0.90;;;0.60;;
29854;SDS011;16733;48.738;9.106;2022-09-12T17:32:06;6.60;;;0.60;;
29854;SDS011;16733;48.738;9.106;2022-09-12T17:34:32;0.90;;;0.50;;
29854;SDS011;16733;48.738;9.106;2022-09-12T17:40:20;0.57;;;0.40;;
29854;SDS011;16733;48.738;9.106;2022-09-12T17:42:45;1.70;;;0.95;;
29854;SDS011;16733;48.738;9.106;2022-09-12T17:45:11;1.48;;;1.05;;
29854;SDS011;16733;48.738;9.106;2022-09-12T17:47:37;2.13;;;1.00;;
29854;SDS011;16733;48.738;9.106;2022-09-12T17:50:03;2.65;;;1.02;;
29854;SDS011;16733;48.738;9.106;2022-09-12T17:59:14;0.50;;;0.50;;
29854;SDS011;16733;48.738;9.106;2022-09-12T18:01:42;2.35;;;0.70;;
29854;SDS011;16733;48.738;9.106;2022-09-12T18:04:27;1.88;;;0.95;;
29854;SDS011;16733;48.738;9.106;2022-09-12T18:06:53;3.80;;;0.90;;
29854;SDS011;16733;48.738;9.106;2022-09-12T18:09:21;18.13;;;7.68;;
29854;SDS011;16733;48.738;9.106;2022-09-12T18:11:49;5.55;;;1.60;;
29854;SDS011;16733;48.738;9.106;2022-09-12T18:14:15;0.73;;;0.70;;
29854;SDS011;16733;48.738;9.106;2022-09-12T18:20:04;3.05;;;1.38;;
29854;SDS011;16733;48.738;9.106;2022-09-12T18:22:30;1.77;;;1.10;;
29854;SDS011;16733;48.738;9.106;2022-09-12T18:24:56;1.83;;;1.10;;
29854;SDS011;16733;48.738;9.106;2022-09-12T18:27:21;1.88;;;1.08;;
29854;SDS011;16733;48.738;9.106;2022-09-12T18:29:47;1.83;;;0.95;;
29854;SDS011;16733;48.738;9.106;2022-09-12T18:32:12;2.15;;;1.23;;
29854;SDS011;16733;48.738;9.106;2022-09-12T18:34:38;1.65;;;1.02;;
29854;SDS011;16733;48.738;9.106;2022-09-12T18:37:03;3.90;;;1.25;;
29854;SDS011;16733;48.738;9.106;2022-09-12T18:39:30;3.08;;;1.15;;
29854;SDS011;16733;48.738;9.106;2022-09-12T18:41:56;2.80;;;1.50;;
29854;SDS011;16733;48.738;9.106;2022-09-12T18:44:22;4.10;;;1.20;;
29854;SDS011;16733;48.738;9.106;2022-09-12T18:46:47;2.00;;;0.95;;
29854;SDS011;16733;48.738;9.106;2022-09-12T18:49:13;3.65;;;1.67;;
29854;SDS011;16733;48.738;9.106;2022-09-12T18:51:38;4.25;;;1.60;;
29854;SDS011;16733;48.738;9.106;2022-09-12T18:57:27;2.47;;;1.40;;
29854;SDS011;16733;48.738;9.106;2022-09-12T18:59:58;5.65;;;1.52;;
29854;SDS011;16733;48.738;9.106;2022-09-12T19:02:28;2.42;;;1.40;;
29854;SDS011;16733;48.738;9.106;2022-09-12T19:08:22;2.63;;;1.33;;
29854;SDS011;16733;48.738;9.106;2022-09-12T19:10:54;1.77;;;1.30;;
29854;SDS011;16733;48.738;9.106;2022-09-12T19:20:30;1.13;;;0.90;;
29854;SDS011;16733;48.738;9.106;2022-09-12T19:22:59;2.30;;;1.30;;
29854;SDS011;16733;48.738;9.106;2022-09-12T19:28:47;2.13;;;1.20;;
29854;SDS011;16733;48.738;9.106;2022-09-12T19:34:35;2.35;;;1.23;;
29854;SDS011;16733;48.738;9.106;2022-09-12T19:43:45;3.47;;;2.03;;
29854;SDS011;16733;48.738;9.106;2022-09-12T19:49:33;1.77;;;1.00;;
29854;SDS011;16733;48.738;9.106;2022-09-12T19:51:58;2.65;;;0.93;;
29854;SDS011;16733;48.738;9.106;2022-09-12T19:54:24;2.17;;;1.20;;
29854;SDS011;16733;48.738;9.106;2022-09-12T20:00:12;3.72;;;0.98;;
29854;SDS011;16733;48.738;9.106;2022-09-12T20:02:38;1.48;;;0.80;;
29854;SDS011;16733;48.738;9.106;2022-09-12T20:05:03;1.25;;;0.90;;
29854;SDS011;16733;48.738;9.106;2022-09-12T20:07:29;1.40;;;0.68;;
29854;SDS011;16733;48.738;9.106;2022-09-12T20:09:55;2.15;;;1.00;;
29854;SDS011;16733;48.738;9.106;2022-09-12T20:12:20;1.92;;;1.10;;
29854;SDS011;16733;48.738;9.106;2022-09-12T20:14:46;1.40;;;0.88;;
29854;SDS011;16733;48.738;9.106;2022-09-12T20:17:12;1.10;;;0.73;;
29854;SDS011;16733;48.738;9.106;2022-09-12T20:26:22;1.70;;;1.10;;
29854;SDS011;16733;48.738;9.106;2022-09-12T20:28:49;2.40;;;0.90;;
29854;SDS011;16733;48.738;9.106;2022-09-12T20:31:15;1.10;;;0.80;;
29854;SDS011;16733;48.738;9.106;2022-09-12T20:33:40;1.10;;;0.80;;
29854;SDS011;16733;48.738;9.106;2022-09-12T20:39:28;0.98;;;0.80;;
29854;SDS011;16733;48.738;9.106;2022-09-12T20:41:54;0.85;;;0.75;;
29854;SDS011;16733;48.738;9.106;2022-09-12T20:44:20;1.95;;;0.70;;
29854;SDS011;16733;48.738;9.106;2022-09-12T20:50:07;10.43;;;1.35;;
29854;SDS011;16733;48.738;9.106;2022-09-12T20:52:33;0.90;;;0.70;;
29854;SDS011;16733;48.738;9.106;2022-09-12T20:58:21;1.55;;;0.77;;
29854;SDS011;16733;48.738;9.106;2022-09-12T21:00:47;2.35;;;1.00;;
29854;SDS011;16733;48.738;9.106;2022-09-12T21:06:35;2.22;;;0.80;;
29854;SDS011;16733;48.738;9.106;2022-09-12T21:09:00;1.20;;;0.90;;
29854;SDS011;16733;48.738;9.106;2022-09-12T21:11:26;1.23;;;0.70;;
29854;SDS011;16733;48.738;9.106;2022-09-12T21:13:52;1.92;;;0.90;;
29854;SDS011;16733;48.738;9.106;2022-09-12T21:16:19;2.13;;;0.70;;
29854;SDS011;16733;48.738;9.106;2022-09-12T21:18:46;1.65;;;0.90;;
29854;SDS011;16733;48.738;9.106;2022-09-12T21:21:18;1.92;;;0.82;;
29854;SDS011;16733;48.738;9.106;2022-09-12T21:23:45;1.40;;;0.93;;
29854;SDS011;16733;48.738;9.106;2022-09-12T21:29:33;1.45;;;0.70;;
29854;SDS011;16733;48.738;9.106;2022-09-12T21:31:58;1.85;;;0.90;;
29854;SDS011;16733;48.738;9.106;2022-09-12T21:37:46;1.27;;;0.80;;
29854;SDS011;16733;48.738;9.106;2022-09-12T21:40:14;3.33;;;1.35;;
29854;SDS011;16733;48.738;9.106;2022-09-12T21:42:40;0.73;;;0.60;;
29854;SDS011;16733;48.738;9.106;2022-09-12T21:48:28;1.13;;;0.82;;
29854;SDS011;16733;48.738;9.106;2022-09-12T21:50:54;0.75;;;0.70;;
29854;SDS011;16733;48.738;9.106;2022-09-12T21:56:42;3.20;;;1.48;;
29854;SDS011;16733;48.738;9.106;2022-09-12T21:59:07;1.20;;;0.88;;
29854;SDS011;16733;48.738;9.106;2022-09-12T22:01:33;1.23;;;0.90;;
29854;SDS011;16733;48.738;9.106;2022-09-12T22:03:59;2.10;;;0.90;;
29854;SDS011;16733;48.738;9.106;2022-09-12T22:09:47;2.13;;;0.75;;
29854;SDS011;16733;48.738;9.106;2022-09-12T22:12:12;2.38;;;0.82;;
29854;SDS011;16733;48.738;9.106;2022-09-12T22:14:38;2.13;;;1.00;;
29854;SDS011;16733;48.738;9.106;2022-09-12T22:17:04;0.98;;;0.75;;
29854;SDS011;16733;48.738;9.106;2022-09-12T22:19:30;3.25;;;0.98;;
29854;SDS011;16733;48.738;9.106;2022-09-12T22:21:56;4.68;;;0.90;;
29854;SDS011;16733;48.738;9.106;2022-09-12T22:31:25;0.98;;;0.60;;